Brisbane - nearby METAR Reports

YBBN - Brisbane Intl Ar, Australia
Distance from station: NNE 11km
Updated: 20/10/2018 15:00
Few Clouds
Few Clouds
 Wind from NNE
Wind: NNE 22 km/h
Temperature: 24°C
Dew Point: 18°C
Humidity: 69%
Barometer: 1014 hPa
Clouds: Few Clouds
Visibility: 10 km
Cloud details: Few Clouds 1158 m
2018/10/20 05:00 YBBN 200500Z 03012KT 9999 FEW038 24/18 Q1014 NOSIG
YAMB - Amberley, Australia
Distance from station: WSW 42km
Updated: 20/10/2018 14:30
Clear
Clear
 Wind from NE
Wind: NE 13 km/h
Temperature: 29°C
Heat Index: 29°C
Dew Point: 16°C
Humidity: 45%
Barometer: 1013 hPa
Clouds: Clear
Visibility: 10 km
2018/10/20 04:30 YAMB 200430Z AUTO 05007KT 9999 // NCD 29/16 Q1013
 
YBCG - Coolangatta Aws, Australia
Distance from station: SSE 102km
Updated: 20/10/2018 15:00
Clear
Clear
 Wind from NNE
Wind: NNE 22 km/h
Temperature: 24°C
Dew Point: 17°C
Humidity: 65%
Barometer: 1014 hPa
Clouds: Clear
Visibility: 10 km
2018/10/20 05:00 YBCG 200500Z AUTO 02012KT 9999 // NCD 24/17 Q1014 RF00.0/000.0